Canefield Airport

Cloudy with adjacent showers
31oC (88oF)

Cloudy with adjacent showers


Winds: South easterly @ 08kts / 15km/h gusting to 20kts / 37km/h

Humidity: 55%

Barometric Pressure: 1014 mb

Accumulated Rainfall for May: 34.1 mm

Updated: 15:00 local time (19:00 UTC)

Douglas-Charles Airport

Cloudy with adjacent showers
29oC (84oF)

Cloudy with adjacent showers


Winds: East south easterly @ 07kts / 13km/h

Humidity: 73%

Barometric Pressure: 1016 mb

Accumulated Rainfall for May: 148.7 mm

Updated: 15:00 local time (19:00 UTC)

Satellite Imagery

Satellite Imagery
Click image for larger view. (Source: National Hurricane Center).

Aviation Routine Report (METAR)

Douglas-Charles: METAR TDPD 271900Z 11007KT 9999 BKN016 29/24 Q1016=
Canefield: METAR TDCF 271900Z 13008G20KT 9999 SCT018 31/21 Q1014=